sensor_id;sensor_type;location;lat;lon;timestamp;P1;durP1;ratioP1;P2;durP2;ratioP2
75937;SDS011;64615;32.062;34.834;2023-02-11T00:01:52;7.38;;;2.50;;
75937;SDS011;64615;32.062;34.834;2023-02-11T00:04:17;5.97;;;2.40;;
75937;SDS011;64615;32.062;34.834;2023-02-11T00:06:43;5.80;;;2.30;;
75937;SDS011;64615;32.062;34.834;2023-02-11T00:09:09;7.80;;;2.47;;
75937;SDS011;64615;32.062;34.834;2023-02-11T00:11:35;6.28;;;2.53;;
75937;SDS011;64615;32.062;34.834;2023-02-11T00:14:02;7.60;;;2.60;;
75937;SDS011;64615;32.062;34.834;2023-02-11T00:18:58;6.05;;;2.10;;
75937;SDS011;64615;32.062;34.834;2023-02-11T00:21:24;5.60;;;2.20;;
75937;SDS011;64615;32.062;34.834;2023-02-11T00:23:51;5.35;;;2.20;;
75937;SDS011;64615;32.062;34.834;2023-02-11T00:26:18;6.13;;;2.30;;
75937;SDS011;64615;32.062;34.834;2023-02-11T00:28:46;4.93;;;2.00;;
75937;SDS011;64615;32.062;34.834;2023-02-11T00:31:13;7.47;;;2.28;;
75937;SDS011;64615;32.062;34.834;2023-02-11T00:33:40;22.67;;;3.85;;
75937;SDS011;64615;32.062;34.834;2023-02-11T00:36:07;15.10;;;2.75;;
75937;SDS011;64615;32.062;34.834;2023-02-11T00:38:35;9.00;;;2.58;;
75937;SDS011;64615;32.062;34.834;2023-02-11T00:41:01;7.93;;;2.67;;
75937;SDS011;64615;32.062;34.834;2023-02-11T00:43:27;10.98;;;2.58;;
75937;SDS011;64615;32.062;34.834;2023-02-11T00:45:52;9.20;;;2.53;;
75937;SDS011;64615;32.062;34.834;2023-02-11T00:48:18;9.32;;;2.58;;
75937;SDS011;64615;32.062;34.834;2023-02-11T00:50:44;8.18;;;2.42;;
75937;SDS011;64615;32.062;34.834;2023-02-11T00:53:09;10.80;;;2.90;;
75937;SDS011;64615;32.062;34.834;2023-02-11T00:55:35;6.80;;;2.60;;
75937;SDS011;64615;32.062;34.834;2023-02-11T00:58:01;8.32;;;2.22;;
75937;SDS011;64615;32.062;34.834;2023-02-11T01:00:27;8.73;;;2.42;;
75937;SDS011;64615;32.062;34.834;2023-02-11T01:02:53;8.88;;;2.40;;
75937;SDS011;64615;32.062;34.834;2023-02-11T01:05:19;11.43;;;2.50;;
75937;SDS011;64615;32.062;34.834;2023-02-11T01:07:45;8.95;;;2.42;;
75937;SDS011;64615;32.062;34.834;2023-02-11T01:10:13;7.20;;;2.08;;
75937;SDS011;64615;32.062;34.834;2023-02-11T01:12:39;6.22;;;2.15;;
75937;SDS011;64615;32.062;34.834;2023-02-11T01:15:06;5.65;;;2.28;;
75937;SDS011;64615;32.062;34.834;2023-02-11T01:17:33;7.68;;;2.40;;
75937;SDS011;64615;32.062;34.834;2023-02-11T01:20:10;7.30;;;2.17;;
75937;SDS011;64615;32.062;34.834;2023-02-11T01:22:43;6.60;;;2.00;;
75937;SDS011;64615;32.062;34.834;2023-02-11T01:25:08;4.85;;;2.10;;
75937;SDS011;64615;32.062;34.834;2023-02-11T01:27:34;5.72;;;2.03;;
75937;SDS011;64615;32.062;34.834;2023-02-11T01:30:01;6.43;;;2.30;;
75937;SDS011;64615;32.062;34.834;2023-02-11T01:32:28;5.97;;;2.20;;
75937;SDS011;64615;32.062;34.834;2023-02-11T01:34:53;5.50;;;1.92;;
75937;SDS011;64615;32.062;34.834;2023-02-11T01:37:19;6.03;;;1.70;;
75937;SDS011;64615;32.062;34.834;2023-02-11T01:39:45;6.28;;;2.00;;
75937;SDS011;64615;32.062;34.834;2023-02-11T01:42:14;7.00;;;2.08;;
75937;SDS011;64615;32.062;34.834;2023-02-11T01:44:41;9.15;;;2.10;;
75937;SDS011;64615;32.062;34.834;2023-02-11T01:47:07;7.93;;;1.95;;
75937;SDS011;64615;32.062;34.834;2023-02-11T01:49:37;5.82;;;1.90;;
75937;SDS011;64615;32.062;34.834;2023-02-11T01:52:08;7.18;;;2.10;;
75937;SDS011;64615;32.062;34.834;2023-02-11T01:54:35;5.65;;;2.22;;
75937;SDS011;64615;32.062;34.834;2023-02-11T01:57:25;4.95;;;1.80;;
75937;SDS011;64615;32.062;34.834;2023-02-11T02:10:49;6.25;;;1.88;;
75937;SDS011;64615;32.062;34.834;2023-02-11T02:13:20;5.00;;;1.85;;
75937;SDS011;64615;32.062;34.834;2023-02-11T02:15:50;6.90;;;2.00;;
75937;SDS011;64615;32.062;34.834;2023-02-11T02:20:57;6.05;;;1.80;;
75937;SDS011;64615;32.062;34.834;2023-02-11T02:26:38;8.82;;;1.92;;
75937;SDS011;64615;32.062;34.834;2023-02-11T02:29:52;6.55;;;2.00;;
75937;SDS011;64615;32.062;34.834;2023-02-11T02:42:53;5.43;;;1.80;;
75937;SDS011;64615;32.062;34.834;2023-02-11T02:45:20;8.05;;;1.75;;
75937;SDS011;64615;32.062;34.834;2023-02-11T02:47:46;7.75;;;1.80;;
75937;SDS011;64615;32.062;34.834;2023-02-11T02:50:12;7.32;;;1.70;;
75937;SDS011;64615;32.062;34.834;2023-02-11T03:03:40;8.23;;;1.95;;
75937;SDS011;64615;32.062;34.834;2023-02-11T03:06:11;7.95;;;1.98;;
75937;SDS011;64615;32.062;34.834;2023-02-11T03:11:30;5.68;;;2.03;;
75937;SDS011;64615;32.062;34.834;2023-02-11T03:13:56;4.82;;;1.63;;
75937;SDS011;64615;32.062;34.834;2023-02-11T03:16:26;4.18;;;1.60;;
75937;SDS011;64615;32.062;34.834;2023-02-11T03:19:02;5.93;;;1.55;;
75937;SDS011;64615;32.062;34.834;2023-02-11T03:21:31;5.13;;;1.65;;
75937;SDS011;64615;32.062;34.834;2023-02-11T03:24:02;5.72;;;1.70;;
75937;SDS011;64615;32.062;34.834;2023-02-11T03:29:56;5.88;;;1.92;;
75937;SDS011;64615;32.062;34.834;2023-02-11T03:37:24;4.30;;;1.77;;
75937;SDS011;64615;32.062;34.834;2023-02-11T03:42:27;8.88;;;2.05;;
75937;SDS011;64615;32.062;34.834;2023-02-11T03:45:00;6.47;;;1.80;;
75937;SDS011;64615;32.062;34.834;2023-02-11T03:47:30;4.18;;;1.67;;
75937;SDS011;64615;32.062;34.834;2023-02-11T03:49:59;5.63;;;1.60;;
75937;SDS011;64615;32.062;34.834;2023-02-11T03:52:28;4.03;;;1.67;;
75937;SDS011;64615;32.062;34.834;2023-02-11T03:54:55;6.32;;;2.00;;
75937;SDS011;64615;32.062;34.834;2023-02-11T03:57:24;5.22;;;1.60;;
75937;SDS011;64615;32.062;34.834;2023-02-11T04:02:23;5.07;;;1.50;;
75937;SDS011;64615;32.062;34.834;2023-02-11T04:04:57;4.55;;;1.65;;
75937;SDS011;64615;32.062;34.834;2023-02-11T04:07:23;7.22;;;1.60;;
75937;SDS011;64615;32.062;34.834;2023-02-11T04:09:49;3.95;;;1.48;;
75937;SDS011;64615;32.062;34.834;2023-02-11T04:12:15;5.13;;;2.05;;
75937;SDS011;64615;32.062;34.834;2023-02-11T04:14:41;6.95;;;1.60;;
75937;SDS011;64615;32.062;34.834;2023-02-11T04:17:07;4.40;;;1.50;;
75937;SDS011;64615;32.062;34.834;2023-02-11T04:19:33;4.95;;;1.60;;
75937;SDS011;64615;32.062;34.834;2023-02-11T04:21:58;6.00;;;1.48;;
75937;SDS011;64615;32.062;34.834;2023-02-11T04:24:24;5.13;;;1.65;;
75937;SDS011;64615;32.062;34.834;2023-02-11T04:26:50;7.88;;;1.73;;
75937;SDS011;64615;32.062;34.834;2023-02-11T04:29:15;6.75;;;1.33;;
75937;SDS011;64615;32.062;34.834;2023-02-11T04:31:41;6.60;;;1.40;;
75937;SDS011;64615;32.062;34.834;2023-02-11T04:34:06;5.50;;;1.40;;
75937;SDS011;64615;32.062;34.834;2023-02-11T04:36:32;5.50;;;1.58;;
75937;SDS011;64615;32.062;34.834;2023-02-11T04:38:58;4.35;;;1.60;;
75937;SDS011;64615;32.062;34.834;2023-02-11T04:41:24;6.88;;;1.67;;
75937;SDS011;64615;32.062;34.834;2023-02-11T04:43:50;5.85;;;1.63;;
75937;SDS011;64615;32.062;34.834;2023-02-11T04:46:15;7.90;;;1.98;;
75937;SDS011;64615;32.062;34.834;2023-02-11T04:48:41;7.88;;;1.60;;
75937;SDS011;64615;32.062;34.834;2023-02-11T04:51:07;5.63;;;1.60;;
75937;SDS011;64615;32.062;34.834;2023-02-11T04:53:32;6.47;;;1.40;;
75937;SDS011;64615;32.062;34.834;2023-02-11T04:55:58;5.88;;;1.63;;
75937;SDS011;64615;32.062;34.834;2023-02-11T04:58:24;3.78;;;1.48;;
75937;SDS011;64615;32.062;34.834;2023-02-11T05:00:49;6.90;;;1.50;;
75937;SDS011;64615;32.062;34.834;2023-02-11T05:03:15;6.05;;;1.63;;
75937;SDS011;64615;32.062;34.834;2023-02-11T05:05:41;4.70;;;1.60;;
75937;SDS011;64615;32.062;34.834;2023-02-11T05:08:08;6.63;;;1.52;;
75937;SDS011;64615;32.062;34.834;2023-02-11T05:10:35;7.00;;;1.70;;
75937;SDS011;64615;32.062;34.834;2023-02-11T05:13:01;4.90;;;1.70;;
75937;SDS011;64615;32.062;34.834;2023-02-11T05:15:27;5.40;;;1.67;;
75937;SDS011;64615;32.062;34.834;2023-02-11T05:17:53;7.05;;;1.63;;
75937;SDS011;64615;32.062;34.834;2023-02-11T05:20:19;7.72;;;1.67;;
75937;SDS011;64615;32.062;34.834;2023-02-11T05:22:45;11.15;;;1.80;;
75937;SDS011;64615;32.062;34.834;2023-02-11T05:25:11;6.85;;;1.77;;
75937;SDS011;64615;32.062;34.834;2023-02-11T05:27:36;7.18;;;1.75;;
75937;SDS011;64615;32.062;34.834;2023-02-11T05:30:03;17.30;;;2.03;;
75937;SDS011;64615;32.062;34.834;2023-02-11T05:32:30;11.52;;;2.08;;
75937;SDS011;64615;32.062;34.834;2023-02-11T05:34:55;10.07;;;2.08;;
75937;SDS011;64615;32.062;34.834;2023-02-11T05:37:21;12.75;;;2.17;;
75937;SDS011;64615;32.062;34.834;2023-02-11T05:39:46;17.17;;;1.90;;
75937;SDS011;64615;32.062;34.834;2023-02-11T05:42:12;12.65;;;2.42;;
75937;SDS011;64615;32.062;34.834;2023-02-11T05:44:38;10.40;;;2.05;;
75937;SDS011;64615;32.062;34.834;2023-02-11T05:47:04;13.98;;;2.10;;
75937;SDS011;64615;32.062;34.834;2023-02-11T05:49:32;11.30;;;2.20;;
75937;SDS011;64615;32.062;34.834;2023-02-11T05:51:58;12.35;;;1.85;;
75937;SDS011;64615;32.062;34.834;2023-02-11T05:54:23;11.95;;;2.17;;
75937;SDS011;64615;32.062;34.834;2023-02-11T05:56:49;18.50;;;2.28;;
75937;SDS011;64615;32.062;34.834;2023-02-11T05:59:15;14.95;;;2.20;;
75937;SDS011;64615;32.062;34.834;2023-02-11T06:01:40;11.02;;;1.95;;
75937;SDS011;64615;32.062;34.834;2023-02-11T06:04:06;13.63;;;2.08;;
75937;SDS011;64615;32.062;34.834;2023-02-11T06:06:32;19.35;;;2.20;;
75937;SDS011;64615;32.062;34.834;2023-02-11T06:08:57;8.23;;;2.47;;
75937;SDS011;64615;32.062;34.834;2023-02-11T06:11:23;7.13;;;1.85;;
75937;SDS011;64615;32.062;34.834;2023-02-11T06:13:49;18.33;;;2.38;;
75937;SDS011;64615;32.062;34.834;2023-02-11T06:16:15;14.90;;;2.25;;
75937;SDS011;64615;32.062;34.834;2023-02-11T06:18:40;11.45;;;2.03;;
75937;SDS011;64615;32.062;34.834;2023-02-11T06:21:09;17.42;;;2.20;;
75937;SDS011;64615;32.062;34.834;2023-02-11T06:23:36;11.25;;;2.00;;
75937;SDS011;64615;32.062;34.834;2023-02-11T06:26:06;18.55;;;2.33;;
75937;SDS011;64615;32.062;34.834;2023-02-11T06:28:33;14.88;;;2.28;;
75937;SDS011;64615;32.062;34.834;2023-02-11T06:31:06;14.98;;;2.22;;
75937;SDS011;64615;32.062;34.834;2023-02-11T06:33:33;10.27;;;2.55;;
75937;SDS011;64615;32.062;34.834;2023-02-11T06:35:59;13.85;;;1.92;;
75937;SDS011;64615;32.062;34.834;2023-02-11T06:38:25;11.90;;;1.85;;
75937;SDS011;64615;32.062;34.834;2023-02-11T06:40:51;28.02;;;2.42;;
75937;SDS011;64615;32.062;34.834;2023-02-11T06:43:16;12.43;;;2.13;;
75937;SDS011;64615;32.062;34.834;2023-02-11T06:45:42;19.55;;;2.78;;
75937;SDS011;64615;32.062;34.834;2023-02-11T06:48:08;16.08;;;2.40;;
75937;SDS011;64615;32.062;34.834;2023-02-11T06:50:34;21.40;;;2.75;;
75937;SDS011;64615;32.062;34.834;2023-02-11T06:52:59;15.05;;;2.28;;
75937;SDS011;64615;32.062;34.834;2023-02-11T06:55:25;17.58;;;2.65;;
75937;SDS011;64615;32.062;34.834;2023-02-11T06:57:51;11.18;;;2.00;;
75937;SDS011;64615;32.062;34.834;2023-02-11T07:00:16;18.02;;;2.50;;
75937;SDS011;64615;32.062;34.834;2023-02-11T07:02:42;22.65;;;2.40;;
75937;SDS011;64615;32.062;34.834;2023-02-11T07:05:08;13.55;;;2.05;;
75937;SDS011;64615;32.062;34.834;2023-02-11T07:07:34;20.52;;;2.58;;
75937;SDS011;64615;32.062;34.834;2023-02-11T07:10:00;17.88;;;2.30;;
75937;SDS011;64615;32.062;34.834;2023-02-11T07:12:30;23.88;;;2.78;;
75937;SDS011;64615;32.062;34.834;2023-02-11T07:14:56;19.00;;;2.08;;
75937;SDS011;64615;32.062;34.834;2023-02-11T07:17:21;22.15;;;2.78;;
75937;SDS011;64615;32.062;34.834;2023-02-11T07:19:47;20.88;;;2.35;;
75937;SDS011;64615;32.062;34.834;2023-02-11T07:22:13;19.98;;;2.70;;
75937;SDS011;64615;32.062;34.834;2023-02-11T07:24:38;16.65;;;2.55;;
75937;SDS011;64615;32.062;34.834;2023-02-11T07:27:04;21.77;;;2.95;;
75937;SDS011;64615;32.062;34.834;2023-02-11T07:29:30;22.27;;;2.33;;
75937;SDS011;64615;32.062;34.834;2023-02-11T07:31:57;18.00;;;2.85;;
75937;SDS011;64615;32.062;34.834;2023-02-11T07:34:22;14.05;;;2.10;;
75937;SDS011;64615;32.062;34.834;2023-02-11T07:36:48;15.68;;;2.42;;
75937;SDS011;64615;32.062;34.834;2023-02-11T07:39:14;19.23;;;2.55;;
75937;SDS011;64615;32.062;34.834;2023-02-11T07:41:39;13.57;;;2.38;;
75937;SDS011;64615;32.062;34.834;2023-02-11T07:44:05;12.90;;;2.20;;
75937;SDS011;64615;32.062;34.834;2023-02-11T07:46:31;13.90;;;2.50;;
75937;SDS011;64615;32.062;34.834;2023-02-11T07:48:59;9.57;;;1.88;;
75937;SDS011;64615;32.062;34.834;2023-02-11T07:51:26;13.88;;;2.03;;
75937;SDS011;64615;32.062;34.834;2023-02-11T07:53:53;11.07;;;2.10;;
75937;SDS011;64615;32.062;34.834;2023-02-11T07:56:20;10.38;;;2.33;;
75937;SDS011;64615;32.062;34.834;2023-02-11T07:58:46;8.38;;;1.90;;
75937;SDS011;64615;32.062;34.834;2023-02-11T08:01:17;10.35;;;2.40;;
75937;SDS011;64615;32.062;34.834;2023-02-11T08:03:46;14.82;;;2.70;;
75937;SDS011;64615;32.062;34.834;2023-02-11T08:06:15;10.38;;;2.35;;
75937;SDS011;64615;32.062;34.834;2023-02-11T08:08:44;13.05;;;2.50;;
75937;SDS011;64615;32.062;34.834;2023-02-11T08:11:14;11.95;;;2.35;;
75937;SDS011;64615;32.062;34.834;2023-02-11T08:13:42;25.17;;;2.35;;
75937;SDS011;64615;32.062;34.834;2023-02-11T08:16:08;9.00;;;2.03;;
75937;SDS011;64615;32.062;34.834;2023-02-11T08:18:43;15.57;;;2.53;;
75937;SDS011;64615;32.062;34.834;2023-02-11T08:21:08;12.55;;;2.08;;
75937;SDS011;64615;32.062;34.834;2023-02-11T08:23:35;11.80;;;2.40;;
75937;SDS011;64615;32.062;34.834;2023-02-11T08:26:05;10.55;;;2.20;;
75937;SDS011;64615;32.062;34.834;2023-02-11T08:28:37;9.70;;;2.13;;
75937;SDS011;64615;32.062;34.834;2023-02-11T08:31:08;12.38;;;2.40;;
75937;SDS011;64615;32.062;34.834;2023-02-11T08:33:48;12.10;;;2.22;;
75937;SDS011;64615;32.062;34.834;2023-02-11T08:36:18;12.90;;;2.30;;
75937;SDS011;64615;32.062;34.834;2023-02-11T08:38:48;13.68;;;2.03;;
75937;SDS011;64615;32.062;34.834;2023-02-11T08:41:14;12.93;;;2.63;;
75937;SDS011;64615;32.062;34.834;2023-02-11T08:43:40;11.45;;;2.30;;
75937;SDS011;64615;32.062;34.834;2023-02-11T08:46:07;8.88;;;1.80;;
75937;SDS011;64615;32.062;34.834;2023-02-11T08:48:35;7.78;;;1.73;;
75937;SDS011;64615;32.062;34.834;2023-02-11T08:51:04;7.78;;;2.10;;
75937;SDS011;64615;32.062;34.834;2023-02-11T08:53:35;13.45;;;2.30;;
75937;SDS011;64615;32.062;34.834;2023-02-11T08:56:01;10.88;;;2.15;;
75937;SDS011;64615;32.062;34.834;2023-02-11T08:58:27;12.32;;;2.28;;
75937;SDS011;64615;32.062;34.834;2023-02-11T09:00:53;14.15;;;2.42;;
75937;SDS011;64615;32.062;34.834;2023-02-11T09:03:18;14.48;;;2.20;;
75937;SDS011;64615;32.062;34.834;2023-02-11T09:05:45;10.90;;;2.22;;
75937;SDS011;64615;32.062;34.834;2023-02-11T09:08:12;11.00;;;2.15;;
75937;SDS011;64615;32.062;34.834;2023-02-11T09:10:38;9.40;;;2.25;;
75937;SDS011;64615;32.062;34.834;2023-02-11T09:13:04;8.20;;;1.92;;
75937;SDS011;64615;32.062;34.834;2023-02-11T09:15:30;10.98;;;2.22;;
75937;SDS011;64615;32.062;34.834;2023-02-11T09:17:56;12.00;;;2.28;;
75937;SDS011;64615;32.062;34.834;2023-02-11T09:20:22;10.32;;;2.05;;
75937;SDS011;64615;32.062;34.834;2023-02-11T09:22:48;13.63;;;2.15;;
75937;SDS011;64615;32.062;34.834;2023-02-11T09:25:14;12.10;;;2.55;;
75937;SDS011;64615;32.062;34.834;2023-02-11T09:27:40;13.30;;;2.40;;
75937;SDS011;64615;32.062;34.834;2023-02-11T09:30:05;14.23;;;2.33;;
75937;SDS011;64615;32.062;34.834;2023-02-11T09:32:31;13.20;;;2.30;;
75937;SDS011;64615;32.062;34.834;2023-02-11T09:34:58;13.45;;;2.30;;
75937;SDS011;64615;32.062;34.834;2023-02-11T09:37:23;13.35;;;2.15;;
75937;SDS011;64615;32.062;34.834;2023-02-11T09:39:49;14.00;;;2.50;;
75937;SDS011;64615;32.062;34.834;2023-02-11T09:45:01;14.20;;;2.50;;
75937;SDS011;64615;32.062;34.834;2023-02-11T09:47:29;12.15;;;2.22;;
75937;SDS011;64615;32.062;34.834;2023-02-11T09:50:09;9.10;;;2.30;;
75937;SDS011;64615;32.062;34.834;2023-02-11T09:55:20;16.02;;;2.20;;
75937;SDS011;64615;32.062;34.834;2023-02-11T09:57:49;12.63;;;2.05;;
75937;SDS011;64615;32.062;34.834;2023-02-11T10:05:44;11.93;;;2.50;;
75937;SDS011;64615;32.062;34.834;2023-02-11T10:11:01;11.88;;;2.40;;
75937;SDS011;64615;32.062;34.834;2023-02-11T10:19:42;14.63;;;2.53;;
75937;SDS011;64615;32.062;34.834;2023-02-11T10:22:20;14.60;;;2.45;;
75937;SDS011;64615;32.062;34.834;2023-02-11T10:24:54;8.00;;;2.30;;
75937;SDS011;64615;32.062;34.834;2023-02-11T10:27:27;13.38;;;2.72;;
75937;SDS011;64615;32.062;34.834;2023-02-11T10:30:03;8.30;;;2.00;;
75937;SDS011;64615;32.062;34.834;2023-02-11T10:32:32;8.45;;;2.47;;
75937;SDS011;64615;32.062;34.834;2023-02-11T10:37:37;16.60;;;2.53;;
75937;SDS011;64615;32.062;34.834;2023-02-11T10:40:03;11.43;;;2.38;;
75937;SDS011;64615;32.062;34.834;2023-02-11T10:42:31;13.77;;;2.75;;
75937;SDS011;64615;32.062;34.834;2023-02-11T10:44:58;13.43;;;2.50;;
75937;SDS011;64615;32.062;34.834;2023-02-11T10:47:28;15.45;;;3.00;;
75937;SDS011;64615;32.062;34.834;2023-02-11T10:49:57;23.63;;;3.30;;
75937;SDS011;64615;32.062;34.834;2023-02-11T10:52:27;20.42;;;2.78;;
75937;SDS011;64615;32.062;34.834;2023-02-11T10:57:53;17.95;;;2.78;;
75937;SDS011;64615;32.062;34.834;2023-02-11T11:02:54;19.50;;;2.90;;
75937;SDS011;64615;32.062;34.834;2023-02-11T11:05:26;22.10;;;2.83;;
75937;SDS011;64615;32.062;34.834;2023-02-11T11:07:57;15.55;;;2.92;;
75937;SDS011;64615;32.062;34.834;2023-02-11T11:10:29;18.20;;;3.33;;
75937;SDS011;64615;32.062;34.834;2023-02-11T11:13:00;24.63;;;3.80;;
75937;SDS011;64615;32.062;34.834;2023-02-11T11:15:30;38.85;;;4.15;;
75937;SDS011;64615;32.062;34.834;2023-02-11T11:18:15;18.85;;;3.22;;
75937;SDS011;64615;32.062;34.834;2023-02-11T11:23:25;21.60;;;3.22;;
75937;SDS011;64615;32.062;34.834;2023-02-11T11:26:13;16.00;;;2.63;;
75937;SDS011;64615;32.062;34.834;2023-02-11T11:28:40;24.25;;;3.28;;
75937;SDS011;64615;32.062;34.834;2023-02-11T11:31:16;12.13;;;3.05;;
75937;SDS011;64615;32.062;34.834;2023-02-11T11:33:46;21.83;;;2.75;;
75937;SDS011;64615;32.062;34.834;2023-02-11T11:36:14;17.67;;;2.90;;
75937;SDS011;64615;32.062;34.834;2023-02-11T11:38:46;18.70;;;2.83;;
75937;SDS011;64615;32.062;34.834;2023-02-11T11:41:23;14.95;;;2.60;;
75937;SDS011;64615;32.062;34.834;2023-02-11T11:43:58;15.40;;;3.08;;
75937;SDS011;64615;32.062;34.834;2023-02-11T11:46:38;11.73;;;2.72;;
75937;SDS011;64615;32.062;34.834;2023-02-11T11:49:28;16.00;;;3.00;;
75937;SDS011;64615;32.062;34.834;2023-02-11T11:55:19;16.27;;;2.90;;
75937;SDS011;64615;32.062;34.834;2023-02-11T11:57:49;13.60;;;2.90;;
75937;SDS011;64615;32.062;34.834;2023-02-11T12:08:22;11.40;;;3.03;;
75937;SDS011;64615;32.062;34.834;2023-02-11T12:11:22;16.65;;;3.05;;
75937;SDS011;64615;32.062;34.834;2023-02-11T12:14:19;14.93;;;3.63;;
75937;SDS011;64615;32.062;34.834;2023-02-11T12:16:52;10.48;;;2.50;;
75937;SDS011;64615;32.062;34.834;2023-02-11T12:22:25;11.10;;;2.42;;
75937;SDS011;64615;32.062;34.834;2023-02-11T12:31:01;10.13;;;2.42;;
75937;SDS011;64615;32.062;34.834;2023-02-11T12:42:23;8.57;;;2.70;;
75937;SDS011;64615;32.062;34.834;2023-02-11T12:55:55;17.55;;;3.10;;
75937;SDS011;64615;32.062;34.834;2023-02-11T12:58:26;11.50;;;2.90;;
75937;SDS011;64615;32.062;34.834;2023-02-11T13:00:57;11.00;;;2.78;;
75937;SDS011;64615;32.062;34.834;2023-02-11T13:03:34;11.40;;;3.03;;
75937;SDS011;64615;32.062;34.834;2023-02-11T13:06:06;9.52;;;2.90;;
75937;SDS011;64615;32.062;34.834;2023-02-11T13:08:49;11.60;;;3.03;;
75937;SDS011;64615;32.062;34.834;2023-02-11T13:11:21;10.38;;;2.75;;
75937;SDS011;64615;32.062;34.834;2023-02-11T13:16:43;15.13;;;3.42;;
75937;SDS011;64615;32.062;34.834;2023-02-11T13:32:13;11.95;;;3.20;;
75937;SDS011;64615;32.062;34.834;2023-02-11T13:37:05;11.77;;;2.63;;
75937;SDS011;64615;32.062;34.834;2023-02-11T13:39:55;13.50;;;2.72;;
75937;SDS011;64615;32.062;34.834;2023-02-11T13:42:25;13.35;;;3.00;;
75937;SDS011;64615;32.062;34.834;2023-02-11T13:44:52;11.68;;;2.70;;
75937;SDS011;64615;32.062;34.834;2023-02-11T13:47:26;9.80;;;2.75;;
75937;SDS011;64615;32.062;34.834;2023-02-11T13:49:55;14.38;;;2.58;;
75937;SDS011;64615;32.062;34.834;2023-02-11T13:54:57;11.80;;;2.92;;
75937;SDS011;64615;32.062;34.834;2023-02-11T13:57:33;18.67;;;2.70;;
75937;SDS011;64615;32.062;34.834;2023-02-11T14:00:02;12.65;;;3.30;;
75937;SDS011;64615;32.062;34.834;2023-02-11T14:14:16;9.30;;;2.63;;
75937;SDS011;64615;32.062;34.834;2023-02-11T14:19:33;10.68;;;2.47;;
75937;SDS011;64615;32.062;34.834;2023-02-11T14:25:14;13.38;;;2.55;;
75937;SDS011;64615;32.062;34.834;2023-02-11T14:27:46;10.70;;;2.22;;
75937;SDS011;64615;32.062;34.834;2023-02-11T14:30:37;9.10;;;2.50;;
75937;SDS011;64615;32.062;34.834;2023-02-11T14:46:38;8.27;;;2.40;;
75937;SDS011;64615;32.062;34.834;2023-02-11T14:49:19;8.30;;;2.38;;
75937;SDS011;64615;32.062;34.834;2023-02-11T14:51:51;14.80;;;2.80;;
75937;SDS011;64615;32.062;34.834;2023-02-11T14:54:21;13.00;;;2.60;;
75937;SDS011;64615;32.062;34.834;2023-02-11T14:59:56;13.60;;;2.33;;
75937;SDS011;64615;32.062;34.834;2023-02-11T15:04:52;12.52;;;2.80;;
75937;SDS011;64615;32.062;34.834;2023-02-11T15:07:19;9.02;;;2.67;;
75937;SDS011;64615;32.062;34.834;2023-02-11T15:09:47;14.38;;;2.65;;
75937;SDS011;64615;32.062;34.834;2023-02-11T15:12:22;25.45;;;3.65;;
75937;SDS011;64615;32.062;34.834;2023-02-11T15:14:52;17.40;;;3.70;;
75937;SDS011;64615;32.062;34.834;2023-02-11T15:17:25;15.52;;;3.10;;
75937;SDS011;64615;32.062;34.834;2023-02-11T15:19:55;13.52;;;2.85;;
75937;SDS011;64615;32.062;34.834;2023-02-11T15:22:25;24.88;;;3.20;;
75937;SDS011;64615;32.062;34.834;2023-02-11T15:24:57;16.63;;;3.38;;
75937;SDS011;64615;32.062;34.834;2023-02-11T15:27:25;11.73;;;3.38;;
75937;SDS011;64615;32.062;34.834;2023-02-11T15:29:50;20.20;;;3.45;;
75937;SDS011;64615;32.062;34.834;2023-02-11T15:32:21;12.98;;;3.33;;
75937;SDS011;64615;32.062;34.834;2023-02-11T15:34:50;14.88;;;3.42;;
75937;SDS011;64615;32.062;34.834;2023-02-11T15:37:24;15.73;;;3.75;;
75937;SDS011;64615;32.062;34.834;2023-02-11T15:39:53;16.23;;;3.75;;
75937;SDS011;64615;32.062;34.834;2023-02-11T15:42:19;17.50;;;3.50;;
75937;SDS011;64615;32.062;34.834;2023-02-11T15:44:45;16.83;;;3.17;;
75937;SDS011;64615;32.062;34.834;2023-02-11T15:47:15;23.48;;;3.80;;
75937;SDS011;64615;32.062;34.834;2023-02-11T15:49:45;18.27;;;3.97;;
75937;SDS011;64615;32.062;34.834;2023-02-11T15:52:20;22.73;;;3.53;;
75937;SDS011;64615;32.062;34.834;2023-02-11T15:54:49;32.05;;;4.65;;
75937;SDS011;64615;32.062;34.834;2023-02-11T15:57:16;21.40;;;4.60;;
75937;SDS011;64615;32.062;34.834;2023-02-11T15:59:46;21.65;;;3.45;;
75937;SDS011;64615;32.062;34.834;2023-02-11T16:04:54;19.83;;;3.60;;
75937;SDS011;64615;32.062;34.834;2023-02-11T16:12:58;9.73;;;2.95;;
75937;SDS011;64615;32.062;34.834;2023-02-11T16:17:58;11.48;;;3.00;;
75937;SDS011;64615;32.062;34.834;2023-02-11T16:20:25;13.23;;;2.85;;
75937;SDS011;64615;32.062;34.834;2023-02-11T16:22:51;11.18;;;3.15;;
75937;SDS011;64615;32.062;34.834;2023-02-11T16:25:17;14.23;;;2.90;;
75937;SDS011;64615;32.062;34.834;2023-02-11T16:27:50;27.33;;;3.72;;
75937;SDS011;64615;32.062;34.834;2023-02-11T16:33:16;18.83;;;3.58;;
75937;SDS011;64615;32.062;34.834;2023-02-11T16:35:41;14.57;;;3.40;;
75937;SDS011;64615;32.062;34.834;2023-02-11T16:38:11;13.85;;;3.20;;
75937;SDS011;64615;32.062;34.834;2023-02-11T16:40:37;13.02;;;3.67;;
75937;SDS011;64615;32.062;34.834;2023-02-11T16:43:03;12.85;;;3.17;;
75937;SDS011;64615;32.062;34.834;2023-02-11T16:45:29;25.35;;;3.53;;
75937;SDS011;64615;32.062;34.834;2023-02-11T16:47:54;14.48;;;3.28;;
75937;SDS011;64615;32.062;34.834;2023-02-11T16:50:21;23.33;;;3.45;;
75937;SDS011;64615;32.062;34.834;2023-02-11T16:52:48;20.45;;;3.38;;
75937;SDS011;64615;32.062;34.834;2023-02-11T16:55:16;16.95;;;4.03;;
75937;SDS011;64615;32.062;34.834;2023-02-11T16:57:42;24.73;;;3.83;;
75937;SDS011;64615;32.062;34.834;2023-02-11T17:00:08;25.17;;;3.40;;
75937;SDS011;64615;32.062;34.834;2023-02-11T17:02:35;20.10;;;3.30;;
75937;SDS011;64615;32.062;34.834;2023-02-11T17:05:04;19.63;;;3.03;;
75937;SDS011;64615;32.062;34.834;2023-02-11T17:07:31;23.58;;;3.55;;
75937;SDS011;64615;32.062;34.834;2023-02-11T17:09:57;20.40;;;3.42;;
75937;SDS011;64615;32.062;34.834;2023-02-11T17:12:23;22.48;;;3.05;;
75937;SDS011;64615;32.062;34.834;2023-02-11T17:14:50;25.25;;;3.50;;
75937;SDS011;64615;32.062;34.834;2023-02-11T17:17:16;14.82;;;3.53;;
75937;SDS011;64615;32.062;34.834;2023-02-11T17:19:41;14.93;;;3.00;;
75937;SDS011;64615;32.062;34.834;2023-02-11T17:22:08;24.73;;;3.85;;
75937;SDS011;64615;32.062;34.834;2023-02-11T17:24:35;18.33;;;3.40;;
75937;SDS011;64615;32.062;34.834;2023-02-11T17:27:01;15.90;;;3.30;;
75937;SDS011;64615;32.062;34.834;2023-02-11T17:29:26;14.48;;;3.92;;
75937;SDS011;64615;32.062;34.834;2023-02-11T17:31:52;10.27;;;2.80;;
75937;SDS011;64615;32.062;34.834;2023-02-11T17:34:18;16.00;;;2.47;;
75937;SDS011;64615;32.062;34.834;2023-02-11T17:36:45;15.57;;;2.97;;
75937;SDS011;64615;32.062;34.834;2023-02-11T17:39:11;17.48;;;3.28;;
75937;SDS011;64615;32.062;34.834;2023-02-11T17:41:37;20.80;;;3.70;;
75937;SDS011;64615;32.062;34.834;2023-02-11T17:44:05;12.70;;;2.95;;
75937;SDS011;64615;32.062;34.834;2023-02-11T17:46:32;12.88;;;3.22;;
75937;SDS011;64615;32.062;34.834;2023-02-11T17:48:58;14.45;;;3.00;;
75937;SDS011;64615;32.062;34.834;2023-02-11T17:51:35;9.95;;;3.30;;
75937;SDS011;64615;32.062;34.834;2023-02-11T17:54:07;14.60;;;2.95;;